^^
Your Local Weather - Clay, NY Station Historical Data
Daily Summary for January 31, 2018 Units:  Metric    English   Both
« Previous Day
Next Day »
Daily Weekly Monthly Yearly Custom
  High: Low: Average:
Temperature: 0.5 °C -13.5 °C -6.7 °C
Dew Point: -6.3 °C -15.6 °C -10.9 °C
Humidity: 89% 51% 74%
Wind Speed: 11.3km/h 0km/h 4.7km/h
Wind Gust: 19.3km/h - -
Wind- - South
Pressure: 1024.9 hPa 1008.7 hPa -
Precipitation: 0.76 mm    
Historical Graphs
 
 
Tabular Data for January 31, 2018
Time Temperature Dew Point Pressure Wind Wind Speed Wind Gust Humidity Rainfall Rate (Hourly) solar
00:02 -9.7 °C -11.6 °C 1023.2 hPa WSW 4.8 km/h 8 km/h 86% 0 mm 0 W/m2
00:08 -9.7 °C -11.6 °C 1023.2 hPa WSW 3.2 km/h 8 km/h 86% 0 mm 0 W/m2
00:14 -9.7 °C -11.8 °C 1023.2 hPa WSW 4.8 km/h 6.4 km/h 85% 0 mm 0 W/m2
00:20 -9.8 °C -11.8 °C 1023.2 hPa WSW 4.8 km/h 4.8 km/h 85% 0 mm 0 W/m2
00:26 -9.8 °C -11.9 °C 1023.2 hPa WSW 4.8 km/h 8 km/h 85% 0 mm 0 W/m2
00:32 -9.8 °C -11.9 °C 1023.2 hPa WSW 4.8 km/h 6.4 km/h 85% 0 mm 0 W/m2
00:38 -9.9 °C -11.9 °C 1023.2 hPa WSW 4.8 km/h 9.7 km/h 85% 0 mm 0 W/m2
00:44 -9.9 °C -11.9 °C 1023.2 hPa WSW 4.8 km/h 4.8 km/h 85% 0 mm 0 W/m2
00:50 -9.9 °C -11.9 °C 1023.2 hPa West 3.2 km/h 4.8 km/h 85% 0 mm 0 W/m2
00:56 -9.9 °C -12 °C 1023.2 hPa WSW 4.8 km/h 4.8 km/h 85% 0 mm 0 W/m2
01:02 -9.9 °C -12 °C 1023.2 hPa SW 4.8 km/h 4.8 km/h 85% 0 mm 0 W/m2
01:08 -9.9 °C -12 °C 1023.2 hPa WSW 4.8 km/h 9.7 km/h 85% 0 mm 0 W/m2
01:14 -9.9 °C -12 °C 1023.2 hPa WSW 3.2 km/h 4.8 km/h 85% 0 mm 0 W/m2
01:20 -9.9 °C -12 °C 1023.6 hPa WNW 1.6 km/h 1.6 km/h 85% 0 mm 0 W/m2
01:26 -9.9 °C -12 °C 1023.6 hPa WNW 1.6 km/h 4.8 km/h 85% 0 mm 0 W/m2
01:32 -9.8 °C -11.9 °C 1023.9 hPa WNW 1.6 km/h 3.2 km/h 85% 0 mm 0 W/m2
01:38 -9.8 °C -11.8 °C 1023.9 hPa WNW 1.6 km/h 3.2 km/h 85% 0 mm 0 W/m2
01:44 -9.8 °C -11.8 °C 1023.9 hPa WNW 1.6 km/h 3.2 km/h 85% 0 mm 0 W/m2
01:50 -9.8 °C -11.8 °C 1023.9 hPa West 1.6 km/h 1.6 km/h 85% 0 mm 0 W/m2
01:56 -9.8 °C -11.8 °C 1023.9 hPa West 1.6 km/h 3.2 km/h 85% 0 mm 0 W/m2
02:02 -9.8 °C -11.9 °C 1023.9 hPa WNW 1.6 km/h 1.6 km/h 85% 0 mm 0 W/m2
02:08 -9.8 °C -11.9 °C 1024.3 hPa WNW 1.6 km/h 4.8 km/h 85% 0 mm 0 W/m2
02:14 -9.8 °C -11.9 °C 1024.3 hPa WNW 3.2 km/h 3.2 km/h 85% 0 mm 0 W/m2
02:20 -9.8 °C -11.8 °C 1024.3 hPa WNW 1.6 km/h 1.6 km/h 85% 0 mm 0 W/m2
02:26 -9.8 °C -11.8 °C 1024.3 hPa Calm   1.6 km/h 85% 0 mm 0 W/m2
02:32 -9.8 °C -11.9 °C 1024.6 hPa West 1.6 km/h 3.2 km/h 85% 0 mm 0 W/m2
02:38 -9.9 °C -11.9 °C 1024.3 hPa WSW 3.2 km/h 4.8 km/h 85% 0 mm 0 W/m2
02:44 -9.9 °C -12 °C 1024.6 hPa WSW 3.2 km/h 8 km/h 85% 0 mm 0 W/m2
02:50 -10 °C -12.1 °C 1024.3 hPa SW 3.2 km/h 6.4 km/h 85% 0 mm 0 W/m2
02:56 -10.1 °C -12.1 °C 1024.3 hPa WSW 3.2 km/h 6.4 km/h 85% 0 mm 0 W/m2
03:04 -10.1 °C -12.1 °C 1024.3 hPa West 3.2 km/h 3.2 km/h 85% 0 mm 0 W/m2
03:10 -10.1 °C -12.2 °C 1024.6 hPa West 1.6 km/h 1.6 km/h 85% 0 mm 0 W/m2
03:16 -10.1 °C -12.2 °C 1024.6 hPa West 1.6 km/h 3.2 km/h 85% 0 mm 0 W/m2
03:22 -10.2 °C -12.2 °C 1024.6 hPa West 1.6 km/h 3.2 km/h 85% 0 mm 0 W/m2
03:28 -10.2 °C -12.2 °C 1024.6 hPa West 1.6 km/h 3.2 km/h 85% 0 mm 0 W/m2
03:34 -10.2 °C -12.2 °C 1024.6 hPa Calm   3.2 km/h 85% 0 mm 0 W/m2
03:40 -10.2 °C -12.3 °C 1024.6 hPa West 1.6 km/h 1.6 km/h 85% 0 mm 0 W/m2
03:46 -10.2 °C -12.3 °C 1024.6 hPa West 1.6 km/h 1.6 km/h 85% 0 mm 0 W/m2
03:52 -10.3 °C -12.3 °C 1024.6 hPa West 1.6 km/h 1.6 km/h 85% 0 mm 0 W/m2
03:58 -10.3 °C -12.3 °C 1024.6 hPa Calm   1.6 km/h 85% 0 mm 0 W/m2
04:04 -10.3 °C -12.3 °C 1024.6 hPa Calm   3.2 km/h 85% 0 mm 0 W/m2
04:10 -10.3 °C -12.4 °C 1024.6 hPa WSW 1.6 km/h 3.2 km/h 85% 0 mm 0 W/m2
04:16 -10.3 °C -12.4 °C 1024.6 hPa WSW 1.6 km/h 6.4 km/h 85% 0 mm 0 W/m2
04:22 -10.4 °C -12.4 °C 1024.6 hPa WSW 1.6 km/h 3.2 km/h 85% 0 mm 0 W/m2
04:28 -10.4 °C -12.4 °C 1024.6 hPa WSW 1.6 km/h 3.2 km/h 85% 0 mm 0 W/m2
04:34 -10.4 °C -12.5 °C 1024.6 hPa WSW 1.6 km/h 1.6 km/h 85% 0 mm 0 W/m2
04:40 -10.4 °C -12.5 °C 1024.6 hPa WSW 1.6 km/h 3.2 km/h 85% 0 mm 0 W/m2
04:46 -10.4 °C -12.5 °C 1024.6 hPa WSW 1.6 km/h 4.8 km/h 85% 0 mm 0 W/m2
04:52 -10.4 °C -12.5 °C 1024.6 hPa WSW 1.6 km/h 1.6 km/h 85% 0 mm 0 W/m2
04:58 -10.5 °C -12.6 °C 1024.6 hPa WSW 1.6 km/h 3.2 km/h 85% 0 mm 0 W/m2
05:04 -10.6 °C -12.6 °C 1024.6 hPa WSW 1.6 km/h 4.8 km/h 85% 0 mm 0 W/m2
05:10 -10.7 °C -12.7 °C 1024.6 hPa WSW 1.6 km/h 1.6 km/h 85% 0 mm 0 W/m2
05:16 -10.8 °C -12.8 °C 1024.6 hPa WSW 1.6 km/h 4.8 km/h 85% 0 mm 0 W/m2
05:22 -10.9 °C -12.9 °C 1024.6 hPa West 3.2 km/h 3.2 km/h 85% 0 mm 0 W/m2
05:28 -11.1 °C -13.1 °C 1024.6 hPa West 1.6 km/h 3.2 km/h 85% 0 mm 0 W/m2
05:34 -11.1 °C -13.1 °C 1024.6 hPa Calm   1.6 km/h 85% 0 mm 0 W/m2
05:40 -11.3 °C -13.3 °C 1024.6 hPa WSW 1.6 km/h 3.2 km/h 85% 0 mm 0 W/m2
05:46 -11.4 °C -13.4 °C 1024.3 hPa WSW 1.6 km/h 3.2 km/h 85% 0 mm 0 W/m2
05:52 -11.6 °C -13.6 °C 1024.6 hPa WSW 1.6 km/h 4.8 km/h 85% 0 mm 0 W/m2
05:58 -11.8 °C -13.8 °C 1024.6 hPa West 3.2 km/h 4.8 km/h 85% 0 mm 0 W/m2
06:04 -11.9 °C -13.9 °C 1024.9 hPa WSW 1.6 km/h 6.4 km/h 85% 0 mm 0 W/m2
06:10 -12 °C -14.2 °C 1024.9 hPa WSW 3.2 km/h 3.2 km/h 84% 0 mm 0 W/m2
06:16 -12 °C -14.2 °C 1024.9 hPa SW 4.8 km/h 4.8 km/h 84% 0 mm 0 W/m2
06:22 -11.9 °C -14.1 °C 1024.9 hPa West 3.2 km/h 4.8 km/h 84% 0 mm 0 W/m2
06:28 -12 °C -14.2 °C 1024.6 hPa WSW 3.2 km/h 4.8 km/h 84% 0 mm 0 W/m2
06:34 -12.1 °C -14.4 °C 1024.6 hPa WSW 1.6 km/h 4.8 km/h 83% 0 mm 0 W/m2
06:40 -12.2 °C -14.5 °C 1024.3 hPa WSW 1.6 km/h 3.2 km/h 83% 0 mm 0 W/m2
06:46 -12.3 °C -14.6 °C 1024.3 hPa Calm   3.2 km/h 83% 0 mm 0 W/m2
06:52 -12.3 °C -14.6 °C 1024.3 hPa Calm     83% 0 mm 0 W/m2
06:58 -12.4 °C -14.7 °C 1024.3 hPa Calm   1.6 km/h 83% 0 mm 0 W/m2
07:04 -12.4 °C -14.7 °C 1024.3 hPa Calm     83% 0 mm 0 W/m2
07:10 -12.4 °C -14.7 °C 1023.9 hPa Calm     83% 0 mm 0 W/m2
07:16 -12.5 °C -14.8 °C 1023.6 hPa Calm     83% 0 mm 0 W/m2
07:22 -12.6 °C -14.8 °C 1023.9 hPa Calm     83% 0 mm 5 W/m2
07:28 -12.7 °C -14.9 °C 1023.9 hPa Calm     83% 0 mm 7 W/m2
07:34 -12.8 °C -15.1 °C 1023.9 hPa Calm     83% 0 mm 14 W/m2
07:40 -12.8 °C -15.1 °C 1023.9 hPa Calm     83% 0 mm 14 W/m2
07:46 -12.9 °C -15.2 °C 1023.9 hPa Calm     83% 0 mm 25 W/m2
07:52 -13.1 °C -15.4 °C 1024.3 hPa Calm     83% 0 mm 25 W/m2
07:58 -13.2 °C -15.4 °C 1024.3 hPa Calm     83% 0 mm 28 W/m2
08:04 -13.2 °C -15.3 °C 1024.3 hPa Calm     84% 0 mm 25 W/m2
08:10 -13.2 °C -15.3 °C 1024.3 hPa Calm     84% 0 mm 28 W/m2
08:16 -13.4 °C -15.5 °C 1024.3 hPa Calm     84% 0 mm 49 W/m2
08:22 -13.5 °C -15.6 °C 1023.9 hPa Calm     84% 0 mm 60 W/m2
08:28 -13.3 °C -15.4 °C 1023.6 hPa Calm   3.2 km/h 84% 0 mm 135 W/m2
08:34 -12.8 °C -14.8 °C 1023.9 hPa Calm   4.8 km/h 85% 0 mm 165 W/m2
08:40 -11.9 °C -13.9 °C 1023.6 hPa SSE 1.6 km/h 1.6 km/h 85% 0 mm 197 W/m2
08:46 -11.1 °C -13.4 °C 1023.6 hPa SE 3.2 km/h 3.2 km/h 83% 0 mm 221 W/m2
08:52 -10.7 °C -13.5 °C 1023.6 hPa SSE 3.2 km/h 4.8 km/h 80% 0 mm 239 W/m2
08:58 -10.4 °C -13.3 °C 1023.6 hPa SE 3.2 km/h 8 km/h 79% 0 mm 251 W/m2
09:04 -10.2 °C -13.3 °C 1023.6 hPa ESE 4.8 km/h 4.8 km/h 78% 0 mm 264 W/m2
09:10 -10 °C -13.3 °C 1023.6 hPa SSE 4.8 km/h 8 km/h 77% 0 mm 295 W/m2
09:16 -9.6 °C -12.9 °C 1022.9 hPa SE 4.8 km/h 8 km/h 77% 0 mm 311 W/m2
09:22 -9.3 °C -12.7 °C 1022.9 hPa SE 4.8 km/h 6.4 km/h 76% 0 mm 329 W/m2
09:28 -9 °C -12.8 °C 1022.9 hPa SSE 4.8 km/h 6.4 km/h 74% 0 mm 313 W/m2
09:34 -9 °C -13.1 °C 1022.6 hPa SSW 6.4 km/h 11.3 km/h 72% 0 mm 316 W/m2
09:40 -8.7 °C -12.8 °C 1022.6 hPa SE 6.4 km/h 6.4 km/h 72% 0 mm 348 W/m2
09:46 -8.6 °C -13.1 °C 1022.6 hPa SSE 4.8 km/h 6.4 km/h 70% 0 mm 343 W/m2
09:52 -8.6 °C -13.2 °C 1022.6 hPa South 6.4 km/h 9.7 km/h 69% 0 mm 385 W/m2
09:58 -8.1 °C -12.8 °C 1022.6 hPa SSE 4.8 km/h 9.7 km/h 69% 0 mm 385 W/m2
10:04 -8.4 °C -13.1 °C 1022.6 hPa SSE 6.4 km/h 6.4 km/h 69% 0 mm 271 W/m2
10:10 -8.4 °C -13.1 °C 1022.2 hPa SSE 6.4 km/h 8 km/h 69% 0 mm 290 W/m2
10:16 -8.3 °C -13.2 °C 1022.6 hPa South 8 km/h 9.7 km/h 68% 0 mm 292 W/m2
10:22 -8.1 °C -13.2 °C 1022.2 hPa SSW 8 km/h 8 km/h 67% 0 mm 309 W/m2
10:28 -7.9 °C -13.1 °C 1022.2 hPa SE 6.4 km/h 11.3 km/h 66% 0 mm 297 W/m2
10:34 -7.9 °C -13.1 °C 1021.9 hPa SSE 6.4 km/h 8 km/h 66% 0 mm 285 W/m2
10:40 -7.7 °C -13.1 °C 1021.9 hPa SSE 4.8 km/h 4.8 km/h 65% 0 mm 302 W/m2
10:46 -7.4 °C -12.8 °C 1021.9 hPa SE 4.8 km/h 9.7 km/h 65% 0 mm 311 W/m2
10:52 -7.3 °C -12.9 °C 1021.6 hPa SE 4.8 km/h 6.4 km/h 64% 0 mm 369 W/m2
10:58 -6.8 °C -12.7 °C 1021.2 hPa SSE 3.2 km/h 6.4 km/h 63% 0 mm 413 W/m2
11:04 -6.6 °C -12.7 °C 1020.9 hPa SE 4.8 km/h 6.4 km/h 62% 0 mm 439 W/m2
11:10 -6.4 °C -12.7 °C 1020.5 hPa SE 4.8 km/h 9.7 km/h 61% 0 mm 475 W/m2
11:16 -6.4 °C -12.7 °C 1020.2 hPa SSE 8 km/h 16.1 km/h 61% 0 mm 452 W/m2
11:22 -6.3 °C -12.6 °C 1019.9 hPa SSE 9.7 km/h 12.9 km/h 61% 0 mm 367 W/m2
11:28 -6.4 °C -12.7 °C 1019.9 hPa SE 9.7 km/h 12.9 km/h 61% 0 mm 323 W/m2
11:34 -6.3 °C -12.6 °C 1019.5 hPa SE 8 km/h 8 km/h 61% 0 mm 323 W/m2
11:40 -6.2 °C -12.3 °C 1019.2 hPa SE 6.4 km/h 6.4 km/h 62% 0 mm 332 W/m2
11:46 -6.1 °C -12.6 °C 1018.8 hPa ESE 6.4 km/h 12.9 km/h 60% 0 mm 299 W/m2
11:52 -6 °C -12.3 °C 1018.8 hPa SE 8 km/h 8 km/h 61% 0 mm 295 W/m2
11:58 -6.1 °C -12.6 °C 1018.8 hPa SSE 9.7 km/h 16.1 km/h 60% 0 mm 285 W/m2
12:04 -6.1 °C -12.6 °C 1018.8 hPa South 11.3 km/h 19.3 km/h 60% 0 mm 288 W/m2
12:10 -5.8 °C -12.4 °C 1018.2 hPa SE 9.7 km/h 9.7 km/h 60% 0 mm 320 W/m2
12:16 -5.7 °C -12.4 °C 1018.2 hPa ESE 9.7 km/h 11.3 km/h 59% 0 mm 271 W/m2
12:28 -5.6 °C -12.5 °C 1017.5 hPa South 8 km/h 14.5 km/h 58% 0 mm 204 W/m2
12:36 -5.6 °C -12.8 °C 1017.2 hPa SE 11.3 km/h 11.3 km/h 57% 0 mm 192 W/m2
12:42 -5.4 °C -12.4 °C 1017.2 hPa SSW 11.3 km/h 11.3 km/h 58% 0 mm 185 W/m2
12:48 -5.3 °C -12.3 °C 1017.2 hPa SSE 8 km/h 11.3 km/h 58% 0 mm 197 W/m2
12:54 -5.2 °C -12.2 °C 1016.8 hPa SE 6.4 km/h 12.9 km/h 58% 0 mm 183 W/m2
13:00 -5.1 °C -12.3 °C 1016.8 hPa South 8 km/h 8 km/h 57% 0 mm 183 W/m2
13:06 -5.1 °C -12.6 °C 1016.8 hPa SSE 6.4 km/h 8 km/h 56% 0 mm 186 W/m2
13:12 -4.9 °C -12.4 °C 1016.5 hPa ESE 8 km/h 8 km/h 56% 0 mm 165 W/m2
13:18 -4.9 °C -12.6 °C 1016.1 hPa SSE 8 km/h 9.7 km/h 55% 0 mm 123 W/m2
13:24 -4.9 °C -12.1 °C 1016.1 hPa SE 6.4 km/h 8 km/h 57% 0 mm 116 W/m2
13:30 -4.8 °C -12.3 °C 1015.8 hPa SE 6.4 km/h 6.4 km/h 56% 0 mm 127 W/m2
13:36 -4.8 °C -12.2 °C 1015.1 hPa SSE 8 km/h 16.1 km/h 56% 0 mm 130 W/m2
13:42 -4.7 °C -12.3 °C 1015.1 hPa SSE 8 km/h 8 km/h 55% 0 mm 125 W/m2
13:48 -4.7 °C -12.1 °C 1015.1 hPa SE 6.4 km/h 9.7 km/h 56% 0 mm 109 W/m2
13:54 -4.7 °C -11.9 °C 1015.1 hPa SE 6.4 km/h 9.7 km/h 57% 0 mm 97 W/m2
14:00 -4.7 °C -11.4 °C 1015.1 hPa SE 6.4 km/h 8 km/h 59% 0 mm 83 W/m2
14:06 -4.8 °C -11.2 °C 1014.8 hPa SE 8 km/h 11.3 km/h 61% 0 mm 76 W/m2
14:12 -4.9 °C -10.8 °C 1014.4 hPa SE 6.4 km/h 8 km/h 63% 0 mm 65 W/m2
14:18 -4.9 °C -10.1 °C 1014.1 hPa SSE 6.4 km/h 11.3 km/h 67% 0 mm 60 W/m2
14:24 -5.2 °C -9.7 °C 1014.1 hPa ESE 6.4 km/h 8 km/h 71% 0 mm 47 W/m2
14:30 -5.6 °C -9.2 °C 1013.8 hPa SE 8 km/h 8 km/h 76% 0 mm 39 W/m2
14:36 -5.7 °C -8.6 °C 1013.4 hPa SSE 6.4 km/h 8 km/h 80% 0 mm 32 W/m2
14:42 -5.8 °C -8.2 °C 1013.1 hPa SSE 4.8 km/h 6.4 km/h 83% 0 mm 30 W/m2
14:48 -5.8 °C -8.1 °C 1013.1 hPa East 6.4 km/h 9.7 km/h 84% 0 mm 35 W/m2
14:54 -5.9 °C -8 °C 1013.1 hPa SSE 8 km/h 9.7 km/h 85% 0 mm 35 W/m2
15:00 -5.8 °C -7.8 °C 1012.8 hPa ESE 6.4 km/h 6.4 km/h 86% 0 mm 51 W/m2
15:06 -5.8 °C -7.7 °C 1012.4 hPa SE 6.4 km/h 12.9 km/h 87% 0 mm 58 W/m2
15:12 -5.9 °C -7.6 °C 1012.4 hPa SE 9.7 km/h 12.9 km/h 88% 0 mm 46 W/m2
15:18 -5.9 °C -7.6 °C 1011.7 hPa East 8 km/h 12.9 km/h 88% 0 mm 44 W/m2
15:24 -5.8 °C -7.5 °C 1011.4 hPa East 8 km/h 12.9 km/h 88% 0 mm 69 W/m2
15:30 -5.8 °C -7.4 °C 1011.4 hPa ESE 8 km/h 12.9 km/h 88% 0 mm 54 W/m2
15:36 -5.7 °C -7.4 °C 1011.4 hPa SE 8 km/h 12.9 km/h 88% 0 mm 69 W/m2
15:42 -5.7 °C -7.2 °C 1010.7 hPa East 6.4 km/h 9.7 km/h 89% 0 mm 86 W/m2
15:48 -5.6 °C -7.1 °C 1010.4 hPa SE 6.4 km/h 9.7 km/h 89% 0 mm 74 W/m2
15:54 -5.4 °C -6.9 °C 1010.4 hPa SE 8 km/h 8 km/h 89% 0 mm 76 W/m2
16:00 -5.4 °C -7.1 °C 1010.4 hPa SE 8 km/h 8 km/h 88% 0 mm 74 W/m2
16:06 -5.3 °C -6.9 °C 1010 hPa SE 6.4 km/h 11.3 km/h 88% 0 mm 60 W/m2
16:12 -5.2 °C -6.8 °C 1010 hPa ESE 4.8 km/h 6.4 km/h 88% 0 mm 56 W/m2
16:18 -5.1 °C -6.9 °C 1009.7 hPa SE 4.8 km/h 9.7 km/h 87% 0 mm 51 W/m2
16:24 -4.9 °C -6.9 °C 1009.4 hPa SE 4.8 km/h 9.7 km/h 86% 0 mm 53 W/m2
16:30 -4.9 °C -6.9 °C 1009.4 hPa ENE 4.8 km/h 4.8 km/h 86% 0 mm 37 W/m2
16:36 -4.9 °C -7 °C 1009.7 hPa SE 4.8 km/h 4.8 km/h 85% 0 mm 30 W/m2
16:42 -4.8 °C -6.9 °C 1009.7 hPa SE 3.2 km/h 3.2 km/h 85% 0 mm 25 W/m2
16:48 -4.8 °C -7.1 °C 1009.7 hPa SE 1.6 km/h 3.2 km/h 84% 0 mm 18 W/m2
16:54 -4.7 °C -7 °C 1009.7 hPa Calm   1.6 km/h 84% 0 mm 14 W/m2
17:00 -4.7 °C -7 °C 1009.7 hPa SE 1.6 km/h 1.6 km/h 84% 0 mm 11 W/m2
17:06 -4.7 °C -7 °C 1009.7 hPa East 1.6 km/h 4.8 km/h 84% 0 mm 7 W/m2
17:12 -4.7 °C -7 °C 1009.7 hPa East 3.2 km/h 4.8 km/h 84% 0 mm 5 W/m2
17:18 -4.8 °C -7.2 °C 1009.7 hPa East 3.2 km/h 4.8 km/h 83% 0 mm 0 W/m2
17:24 -4.8 °C -7.1 °C 1009.7 hPa East 3.2 km/h 4.8 km/h 84% 0 mm 0 W/m2
17:30 -4.8 °C -7.1 °C 1009.7 hPa East 3.2 km/h 3.2 km/h 84% 0 mm 0 W/m2
17:36 -4.9 °C -7.2 °C 1009.7 hPa ENE 3.2 km/h 4.8 km/h 84% 0 mm 0 W/m2
17:42 -4.9 °C -7.2 °C 1009.7 hPa ENE 1.6 km/h 3.2 km/h 84% 0 mm 0 W/m2
17:48 -4.9 °C -7.2 °C 1009.7 hPa ENE 1.6 km/h 3.2 km/h 84% 0 mm 0 W/m2
17:54 -5 °C -7.3 °C 1009.7 hPa ENE 1.6 km/h 1.6 km/h 84% 0 mm 0 W/m2
18:00 -5.1 °C -7.3 °C 1009.7 hPa Calm     84% 0 mm 0 W/m2
18:06 -5.1 °C -7.2 °C 1010 hPa Calm     85% 0 mm 0 W/m2
18:12 -5.1 °C -7.2 °C 1009.7 hPa Calm     85% 0 mm 0 W/m2
18:18 -5.1 °C -7.2 °C 1009.7 hPa Calm     85% 0 mm 0 W/m2
18:24 -5.1 °C -7.2 °C 1009.7 hPa Calm     85% 0 mm 0 W/m2
18:30 -5 °C -7 °C 1009.7 hPa Calm     86% 0 mm 0 W/m2
18:36 -4.8 °C -6.8 °C 1009.7 hPa Calm   1.6 km/h 86% 0 mm 0 W/m2
18:42 -4 °C -6.3 °C 1009.7 hPa SE 1.6 km/h 4.8 km/h 84% 0 mm 0 W/m2
18:48 -3.4 °C -6.4 °C 1009.4 hPa South 3.2 km/h 4.8 km/h 80% 0 mm 0 W/m2
18:54 -3 °C -6.8 °C 1009.4 hPa SSE 3.2 km/h 4.8 km/h 75% 0 mm 0 W/m2
19:00 -2.6 °C -7.2 °C 1009.4 hPa SSE 4.8 km/h 4.8 km/h 71% 0 mm 0 W/m2
19:06 -2.3 °C -7.4 °C 1009.4 hPa SSE 6.4 km/h 9.7 km/h 68% 0 mm 0 W/m2
19:12 -1.9 °C -7.8 °C 1009.4 hPa South 8 km/h 11.3 km/h 64% 0 mm 0 W/m2
19:18 -1.8 °C -7.9 °C 1009.4 hPa South 6.4 km/h 11.3 km/h 63% 0 mm 0 W/m2
19:24 -1.7 °C -8.3 °C 1009.7 hPa South 6.4 km/h 17.7 km/h 61% 0 mm 0 W/m2
19:30 -1.6 °C -8.6 °C 1009.4 hPa South 8 km/h 8 km/h 59% 0 mm 0 W/m2
19:36 -1.5 °C -8.7 °C 1009.7 hPa SSW 8 km/h 11.3 km/h 58% 0 mm 0 W/m2
19:42 -1.4 °C -8.8 °C 1009.7 hPa South 8 km/h 14.5 km/h 57% 0 mm 0 W/m2
19:48 -1.3 °C -9.2 °C 1009.7 hPa WSW 9.7 km/h 14.5 km/h 55% 0 mm 0 W/m2
19:54 -1.2 °C -9.1 °C 1009.7 hPa South 11.3 km/h 11.3 km/h 55% 0 mm 0 W/m2
20:00 -1.2 °C -9.3 °C 1009.7 hPa SW 11.3 km/h 14.5 km/h 54% 0 mm 0 W/m2
20:06 -1.2 °C -9.6 °C 1009.4 hPa SSW 11.3 km/h 19.3 km/h 53% 0 mm 0 W/m2
20:12 -1.2 °C -9.6 °C 1009.4 hPa SSW 11.3 km/h 14.5 km/h 53% 0 mm 0 W/m2
20:18 -1.2 °C -9.3 °C 1009.4 hPa SSE 9.7 km/h 14.5 km/h 54% 0 mm 0 W/m2
20:24 -1.2 °C -9.6 °C 1009.7 hPa SSW 9.7 km/h 9.7 km/h 53% 0 mm 0 W/m2
20:30 -1.1 °C -9.5 °C 1009.4 hPa SSE 9.7 km/h 17.7 km/h 53% 0 mm 0 W/m2
20:36 -1.1 °C -9.4 °C 1009.4 hPa SW 11.3 km/h 17.7 km/h 53% 0 mm 0 W/m2
20:42 -1.1 °C -9.4 °C 1009.4 hPa SSE 9.7 km/h 16.1 km/h 53% 0 mm 0 W/m2
20:48 -0.9 °C -9.3 °C 1009.4 hPa South 9.7 km/h 16.1 km/h 53% 0 mm 0 W/m2
20:54 -0.8 °C -9.2 °C 1009.4 hPa SSW 9.7 km/h 11.3 km/h 53% 0 mm 0 W/m2
21:00 -0.8 °C -9.4 °C 1009.4 hPa SSE 8 km/h 11.3 km/h 52% 0 mm 0 W/m2
21:06 -0.7 °C -9.1 °C 1009.4 hPa South 9.7 km/h 11.3 km/h 53% 0 mm 0 W/m2
21:12 -0.6 °C -9.3 °C 1009.4 hPa South 9.7 km/h 9.7 km/h 52% 0 mm 0 W/m2
21:18 -0.6 °C -9.5 °C 1009.4 hPa SSE 8 km/h 14.5 km/h 51% 0 mm 0 W/m2
21:24 -0.6 °C -9.2 °C 1009.4 hPa South 8 km/h 16.1 km/h 52% 0 mm 0 W/m2
21:30 -0.6 °C -9.2 °C 1009.4 hPa South 8 km/h 8 km/h 52% 0 mm 0 W/m2
21:36 -0.4 °C -9.3 °C 1009.4 hPa South 9.7 km/h 14.5 km/h 51% 0 mm 0 W/m2
21:42 -0.4 °C -9.3 °C 1009.4 hPa South 8 km/h 8 km/h 51% 0 mm 0 W/m2
21:48 -0.3 °C -9 °C 1009.4 hPa SSW 6.4 km/h 8 km/h 52% 0 mm 0 W/m2
21:54 -0.3 °C -9 °C 1009.4 hPa South 4.8 km/h 6.4 km/h 52% 0 mm 0 W/m2
22:00 -0.3 °C -9 °C 1009 hPa SSE 4.8 km/h 4.8 km/h 52% 0 mm 0 W/m2
22:06 -0.3 °C -8.7 °C 1009 hPa South 3.2 km/h 8 km/h 53% 0 mm 0 W/m2
22:12 -0.3 °C -8.7 °C 1009 hPa SSW 3.2 km/h 3.2 km/h 53% 0 mm 0 W/m2
22:18 -0.3 °C -8.8 °C 1009 hPa SSW 3.2 km/h 3.2 km/h 53% 0 mm 0 W/m2
22:24 -0.4 °C -8.6 °C 1009 hPa SSW 3.2 km/h 3.2 km/h 54% 0 mm 0 W/m2
22:30 -0.4 °C -8.6 °C 1009.4 hPa SSW 3.2 km/h 6.4 km/h 54% 0 mm 0 W/m2
22:36 -0.3 °C -8.5 °C 1009 hPa SSE 3.2 km/h 8 km/h 54% 0 mm 0 W/m2
22:42 -0.2 °C -8.4 °C 1009 hPa SW 4.8 km/h 4.8 km/h 54% 0 mm 0 W/m2
22:48 -0.1 °C -8.3 °C 1009 hPa SSE 4.8 km/h 8 km/h 54% 0 mm 0 W/m2
22:56 0.1 °C -8.4 °C 1009 hPa South 4.8 km/h 8 km/h 53% 0 mm 0 W/m2
23:02 0.2 °C -8.3 °C 1009 hPa South 6.4 km/h 6.4 km/h 53% 0 mm 0 W/m2
23:08 0.2 °C -8.6 °C 1009 hPa SSE 6.4 km/h 6.4 km/h 52% 0 mm 0 W/m2
23:14 0.3 °C -8.7 °C 1009 hPa South 8 km/h 8 km/h 51% 0 mm 0 W/m2
23:20 0.3 °C -8.4 °C 1009 hPa SSW 6.4 km/h 6.4 km/h 52% 0 mm 0 W/m2
23:26 0.4 °C -8.6 °C 1009 hPa South 8 km/h 9.7 km/h 51% 0 mm 0 W/m2
23:32 0.4 °C -8.3 °C 1009 hPa SSW 8 km/h 8 km/h 52% 0 mm 0 W/m2
23:38 0.4 °C -8.6 °C 1009 hPa SSE 8 km/h 8 km/h 51% 0 mm 0 W/m2
23:44 0.4 °C -8.6 °C 1008.7 hPa SSW 8 km/h 11.3 km/h 51% 0 mm 0 W/m2
23:50 0.5 °C -8.5 °C 1008.7 hPa South 8 km/h 8 km/h 51% 0 mm 0 W/m2
23:56 0.4 °C -8.3 °C 1008.7 hPa South 8 km/h 8 km/h 52% 0 mm 0 W/m2
Country Meadow, Clay, NY, USA
Compliments of Weather Underground - 2 mb